createdAt,value
2018-06-19T00:01:36.556Z,15.98
2018-06-19T00:04:05.222Z,15.95
2018-06-19T00:06:33.873Z,15.92
2018-06-19T00:09:02.533Z,15.87
2018-06-19T00:11:31.164Z,15.86
2018-06-19T00:14:00.701Z,15.80
2018-06-19T00:16:29.345Z,15.80
2018-06-19T00:18:59.449Z,15.79
2018-06-19T00:21:30.673Z,15.74
2018-06-19T00:23:59.309Z,15.72
2018-06-19T00:26:28.032Z,15.71
2018-06-19T00:28:56.777Z,15.68
2018-06-19T00:31:25.416Z,15.63
2018-06-19T00:33:54.095Z,15.57
2018-06-19T00:36:22.717Z,15.52
2018-06-19T00:38:51.430Z,15.46
2018-06-19T00:41:20.724Z,15.42
2018-06-19T00:43:49.412Z,15.36
2018-06-19T00:46:19.294Z,15.31
2018-06-19T00:48:47.892Z,15.25
2018-06-19T00:51:16.581Z,15.24
2018-06-19T00:53:45.272Z,15.24
2018-06-19T00:56:25.055Z,15.22
2018-06-19T00:58:53.758Z,15.18
2018-06-19T01:01:22.475Z,15.11
2018-06-19T01:03:51.133Z,15.04
2018-06-19T01:06:19.842Z,14.98
2018-06-19T01:08:48.536Z,14.91
2018-06-19T01:11:17.306Z,14.85
2018-06-19T01:13:45.928Z,14.82
2018-06-19T01:16:14.527Z,14.79
2018-06-19T01:18:43.108Z,14.79
2018-06-19T01:21:11.804Z,14.82
2018-06-19T01:23:40.361Z,14.88
2018-06-19T01:26:09.001Z,14.97
2018-06-19T01:28:37.986Z,15.04
2018-06-19T01:31:06.855Z,15.12
2018-06-19T01:33:35.550Z,15.20
2018-06-19T01:36:04.258Z,15.27
2018-06-19T01:38:32.977Z,15.33
2018-06-19T01:41:01.694Z,15.37
2018-06-19T01:43:30.380Z,15.41
2018-06-19T01:45:59.084Z,15.45
2018-06-19T01:48:27.794Z,15.49
2018-06-19T01:50:56.625Z,15.53
2018-06-19T01:53:25.243Z,15.55
2018-06-19T01:55:53.876Z,15.56
2018-06-19T01:58:23.141Z,15.54
2018-06-19T02:00:51.749Z,15.54
2018-06-19T02:03:20.353Z,15.55
2018-06-19T02:05:48.974Z,15.58
2018-06-19T02:08:17.592Z,15.60
2018-06-19T02:10:46.285Z,15.64
2018-06-19T02:13:15.027Z,15.66
2018-06-19T02:15:43.732Z,15.71
2018-06-19T02:18:12.630Z,15.75
2018-06-19T02:20:41.320Z,15.73
2018-06-19T02:23:09.980Z,15.72
2018-06-19T02:25:38.710Z,15.70
2018-06-19T02:28:07.473Z,15.70
2018-06-19T02:30:36.217Z,15.69
2018-06-19T02:33:04.880Z,15.69
2018-06-19T02:35:33.624Z,15.69
2018-06-19T02:38:02.261Z,15.68
2018-06-19T02:40:31.175Z,15.66
2018-06-19T02:42:59.810Z,15.64
2018-06-19T02:45:28.582Z,15.64
2018-06-19T02:47:57.233Z,15.62
2018-06-19T02:50:25.904Z,15.58
2018-06-19T02:52:54.511Z,15.54
2018-06-19T02:55:23.174Z,15.53
2018-06-19T02:57:51.854Z,15.56
2018-06-19T03:00:20.640Z,15.56
2018-06-19T03:02:49.292Z,15.56
2018-06-19T03:05:17.974Z,15.54
2018-06-19T03:07:46.564Z,15.54
2018-06-19T03:10:15.356Z,15.55
2018-06-19T03:12:44.005Z,15.55
2018-06-19T03:15:12.763Z,15.61
2018-06-19T03:17:41.496Z,15.67
2018-06-19T03:20:10.178Z,15.73
2018-06-19T03:22:39.125Z,15.98
2018-06-19T03:25:09.870Z,16.09
2018-06-19T03:27:38.531Z,16.04
2018-06-19T03:30:07.661Z,15.99
2018-06-19T03:32:36.722Z,16.00
2018-06-19T03:35:05.231Z,16.00
2018-06-19T03:37:33.747Z,16.01
2018-06-19T03:40:02.270Z,16.01
2018-06-19T03:42:30.922Z,16.02
2018-06-19T03:44:59.452Z,16.00
2018-06-19T03:47:28.071Z,16.06
2018-06-19T03:49:56.623Z,16.08
2018-06-19T03:52:25.229Z,16.11
2018-06-19T03:54:53.813Z,16.19
2018-06-19T03:57:22.328Z,16.24
2018-06-19T03:59:51.681Z,16.28
2018-06-19T04:02:20.245Z,16.29
2018-06-19T04:04:48.867Z,16.30
2018-06-19T04:07:17.530Z,16.32
2018-06-19T04:09:46.236Z,16.39
2018-06-19T04:12:14.774Z,16.47
2018-06-19T04:14:43.329Z,16.46
2018-06-19T04:17:19.265Z,16.51
2018-06-19T04:19:48.069Z,16.61
2018-06-19T04:22:16.618Z,16.71
2018-06-19T04:24:45.225Z,16.80
2018-06-19T04:27:13.808Z,16.94
2018-06-19T04:29:42.314Z,17.06
2018-06-19T04:32:11.012Z,17.15
2018-06-19T04:34:39.568Z,17.23
2018-06-19T04:37:08.291Z,17.36
2018-06-19T04:39:36.833Z,17.36
2018-06-19T04:42:05.464Z,17.48
2018-06-19T04:44:34.128Z,17.60
2018-06-19T04:47:03.106Z,17.71
2018-06-19T04:49:31.755Z,17.75
2018-06-19T04:52:00.261Z,17.77
2018-06-19T04:54:28.825Z,17.85
2018-06-19T04:56:57.611Z,17.87
2018-06-19T04:59:26.627Z,18.04
2018-06-19T05:01:55.369Z,18.14
2018-06-19T05:04:24.154Z,18.20
2018-06-19T05:06:52.839Z,18.44
2018-06-19T05:09:21.604Z,18.41
2018-06-19T05:11:50.453Z,18.47
2018-06-19T05:14:19.113Z,18.60
2018-06-19T05:16:47.960Z,18.78
2018-06-19T05:19:16.829Z,18.98
2018-06-19T05:21:45.606Z,19.15
2018-06-19T05:24:14.489Z,19.60
2018-06-19T05:26:43.292Z,19.82
2018-06-19T05:29:11.978Z,20.35
2018-06-19T05:31:40.761Z,20.61
2018-06-19T05:34:09.488Z,23.20
2018-06-19T05:36:38.661Z,25.59
2018-06-19T05:39:10.037Z,25.80
2018-06-19T05:41:38.863Z,25.29
2018-06-19T05:44:08.657Z,24.04
2018-06-19T05:46:38.222Z,23.41
2018-06-19T05:49:07.041Z,26.79
2018-06-19T05:51:35.961Z,26.24
2018-06-19T05:54:04.665Z,28.33
2018-06-19T05:56:33.714Z,26.31
2018-06-19T05:59:02.648Z,26.68
2018-06-19T06:01:31.600Z,24.47
2018-06-19T06:04:00.597Z,25.36
2018-06-19T06:06:29.475Z,26.27
2018-06-19T06:08:58.280Z,25.70
2018-06-19T06:11:27.059Z,25.56
2018-06-19T06:13:55.781Z,25.74
2018-06-19T06:16:24.578Z,25.32
2018-06-19T06:18:53.456Z,24.61
2018-06-19T06:21:22.437Z,24.19
2018-06-19T06:23:51.361Z,23.61
2018-06-19T06:26:20.205Z,23.58
2018-06-19T06:28:48.944Z,22.96
2018-06-19T06:31:18.020Z,23.29
2018-06-19T06:33:46.831Z,23.59
2018-06-19T06:36:15.598Z,23.62
2018-06-19T06:38:44.374Z,23.60
2018-06-19T06:41:13.069Z,23.57
2018-06-19T06:43:41.842Z,24.18
2018-06-19T06:46:10.664Z,24.76
2018-06-19T06:48:39.322Z,25.52
2018-06-19T06:51:08.157Z,25.28
2018-06-19T06:53:37.104Z,24.61
2018-06-19T06:56:06.419Z,25.23
2018-06-19T06:58:35.041Z,25.03
2018-06-19T07:01:04.114Z,24.54
2018-06-19T07:03:32.636Z,27.29
2018-06-19T07:06:01.316Z,26.84
2018-06-19T07:08:30.271Z,26.69
2018-06-19T07:10:58.938Z,26.93
2018-06-19T07:13:27.714Z,26.88
2018-06-19T07:15:56.599Z,27.41
2018-06-19T07:18:25.260Z,27.59
2018-06-19T07:20:53.945Z,26.99
2018-06-19T07:23:22.720Z,27.99
2018-06-19T07:25:51.440Z,28.93
2018-06-19T07:28:20.038Z,31.49
2018-06-19T07:30:48.855Z,33.65
2018-06-19T07:33:17.828Z,34.56
2018-06-19T07:35:46.605Z,34.46
2018-06-19T07:38:15.259Z,33.53
2018-06-19T07:40:44.165Z,32.64
2018-06-19T07:43:12.915Z,32.80
2018-06-19T07:45:41.678Z,33.98
2018-06-19T07:48:10.328Z,33.29
2018-06-19T07:50:39.118Z,32.33
2018-06-19T07:53:07.933Z,30.92
2018-06-19T07:55:36.650Z,30.04
2018-06-19T07:58:05.500Z,30.57
2018-06-19T08:00:34.101Z,30.92
2018-06-19T08:03:02.762Z,31.82
2018-06-19T08:05:31.708Z,32.69
2018-06-19T08:08:00.440Z,33.37
2018-06-19T08:10:29.078Z,36.69
2018-06-19T08:12:57.921Z,36.85
2018-06-19T08:15:26.706Z,38.56
2018-06-19T08:17:55.373Z,38.62
2018-06-19T08:20:24.110Z,40.32
2018-06-19T08:22:53.135Z,40.81
2018-06-19T08:25:21.964Z,39.90
2018-06-19T08:27:50.671Z,41.24
2018-06-19T08:30:19.321Z,41.52
2018-06-19T08:32:48.348Z,40.61
2018-06-19T08:35:17.223Z,37.20
2018-06-19T08:37:45.899Z,37.01
2018-06-19T08:40:14.513Z,36.59
2018-06-19T08:42:43.310Z,35.06
2018-06-19T08:45:12.089Z,36.21
2018-06-19T08:47:41.031Z,37.51
2018-06-19T08:50:10.030Z,40.71
2018-06-19T08:52:38.681Z,41.79
2018-06-19T08:55:07.613Z,42.15
2018-06-19T08:57:36.333Z,40.50
2018-06-19T09:00:05.290Z,35.06
2018-06-19T09:02:33.984Z,36.33
2018-06-19T09:05:02.662Z,37.69
2018-06-19T09:07:31.501Z,35.94
2018-06-19T09:10:00.308Z,34.14
2018-06-19T09:12:28.946Z,32.92
2018-06-19T09:14:57.939Z,31.74
2018-06-19T09:17:26.656Z,30.46
2018-06-19T09:19:55.172Z,29.82
2018-06-19T09:22:23.753Z,30.13
2018-06-19T09:24:52.450Z,29.40
2018-06-19T09:27:20.986Z,29.48
2018-06-19T09:29:49.552Z,32.11
2018-06-19T09:32:18.102Z,34.71
2018-06-19T09:34:46.667Z,33.12
2018-06-19T09:37:15.233Z,32.19
2018-06-19T09:39:43.845Z,32.90
2018-06-19T09:42:12.360Z,34.32
2018-06-19T09:44:40.897Z,31.38
2018-06-19T09:47:09.458Z,34.34
2018-06-19T09:49:37.974Z,33.50
2018-06-19T09:52:06.979Z,30.50
2018-06-19T09:54:35.507Z,28.12
2018-06-19T09:57:04.047Z,27.07
2018-06-19T09:59:32.662Z,26.34
2018-06-19T10:02:01.193Z,26.39
2018-06-19T10:04:29.697Z,26.49
2018-06-19T10:06:58.265Z,26.51
2018-06-19T10:09:26.783Z,26.79
2018-06-19T10:11:55.442Z,26.58
2018-06-19T10:14:23.966Z,27.07
2018-06-19T10:16:52.470Z,27.66
2018-06-19T10:19:21.001Z,27.87
2018-06-19T10:21:49.616Z,27.98
2018-06-19T10:24:18.138Z,28.24
2018-06-19T10:26:46.766Z,29.44
2018-06-19T10:29:15.361Z,30.23
2018-06-19T10:31:43.959Z,29.83
2018-06-19T10:34:12.513Z,29.50
2018-06-19T10:36:41.125Z,29.58
2018-06-19T10:39:10.900Z,32.14
2018-06-19T10:41:39.544Z,35.10
2018-06-19T10:44:08.079Z,37.42
2018-06-19T10:46:36.624Z,33.56
2018-06-19T10:49:05.265Z,36.48
2018-06-19T10:51:33.916Z,34.49
2018-06-19T10:54:02.446Z,33.49
2018-06-19T10:56:30.984Z,34.43
2018-06-19T10:58:59.636Z,32.81
2018-06-19T11:01:28.159Z,31.95
2018-06-19T11:03:56.669Z,30.66
2018-06-19T11:06:25.241Z,30.10
2018-06-19T11:08:53.783Z,30.50
2018-06-19T11:11:22.338Z,30.42
2018-06-19T11:13:50.890Z,31.30
2018-06-19T11:16:19.518Z,34.60
2018-06-19T11:18:48.095Z,34.70
2018-06-19T11:21:16.676Z,34.04
2018-06-19T11:23:45.220Z,32.84
2018-06-19T11:26:14.225Z,32.23
2018-06-19T11:28:42.917Z,32.00
2018-06-19T11:31:11.521Z,32.33
2018-06-19T11:33:40.076Z,32.07
2018-06-19T11:36:08.681Z,30.61
2018-06-19T11:38:37.217Z,31.18
2018-06-19T11:41:05.776Z,31.60
2018-06-19T11:43:34.327Z,31.94
2018-06-19T11:46:02.924Z,32.15
2018-06-19T11:48:31.447Z,32.05
2018-06-19T11:50:59.996Z,31.19
2018-06-19T11:53:28.501Z,30.27
2018-06-19T11:55:57.068Z,29.82
2018-06-19T11:58:25.606Z,29.10
2018-06-19T12:00:54.659Z,28.66
2018-06-19T12:03:23.208Z,28.65
2018-06-19T12:05:51.725Z,28.67
2018-06-19T12:08:20.229Z,28.47
2018-06-19T12:10:48.724Z,28.56
2018-06-19T12:13:17.357Z,28.80
2018-06-19T12:15:45.815Z,28.80
2018-06-19T12:18:14.437Z,28.93
2018-06-19T12:20:43.001Z,28.84
2018-06-19T12:23:11.493Z,28.96
2018-06-19T12:25:40.013Z,29.09
2018-06-19T12:28:08.539Z,29.37
2018-06-19T12:30:37.051Z,29.68
2018-06-19T12:33:05.566Z,29.96
2018-06-19T12:35:34.085Z,30.21
2018-06-19T12:38:02.663Z,30.32
2018-06-19T12:40:32.117Z,30.20
2018-06-19T12:43:00.771Z,30.06
2018-06-19T12:45:29.299Z,30.24
2018-06-19T12:47:57.803Z,30.14
2018-06-19T12:51:43.472Z,30.19
2018-06-19T12:54:28.854Z,30.03
2018-06-19T12:56:57.377Z,30.06
2018-06-19T12:59:25.922Z,30.03
2018-06-19T13:01:54.468Z,29.83
2018-06-19T13:04:34.094Z,29.96
2018-06-19T13:07:03.262Z,29.97
2018-06-19T13:09:31.798Z,29.85
2018-06-19T13:12:00.356Z,30.01
2018-06-19T13:14:38.180Z,30.31
2018-06-19T13:17:17.920Z,30.62
2018-06-19T13:19:57.509Z,30.82
2018-06-19T13:22:26.049Z,31.18
2018-06-19T13:24:54.611Z,31.28
2018-06-19T13:27:23.176Z,31.20
2018-06-19T13:30:10.224Z,31.17
2018-06-19T13:32:39.307Z,31.33
2018-06-19T13:35:07.816Z,30.87
2018-06-19T13:37:36.396Z,30.71
2018-06-19T13:41:18.939Z,30.75
2018-06-19T13:43:59.897Z,30.64
2018-06-19T13:46:28.430Z,30.32
2018-06-19T13:48:56.955Z,30.49
2018-06-19T13:51:25.518Z,30.46
2018-06-19T13:53:54.086Z,30.32
2018-06-19T13:57:47.776Z,30.18
2018-06-19T14:00:18.666Z,30.55
2018-06-19T14:02:47.233Z,30.21
2018-06-19T14:05:17.015Z,30.17
2018-06-19T14:08:00.108Z,30.16
2018-06-19T14:10:39.838Z,30.10
2018-06-19T14:13:08.442Z,29.97
2018-06-19T14:15:45.195Z,30.28
2018-06-19T14:18:14.681Z,30.31
2018-06-19T14:20:43.545Z,30.32
2018-06-19T14:23:12.465Z,29.63
2018-06-19T14:25:41.115Z,29.75
2018-06-19T14:28:09.777Z,29.84
2018-06-19T14:30:38.329Z,29.63
2018-06-19T14:33:06.986Z,29.47
2018-06-19T14:35:35.552Z,29.84
2018-06-19T14:38:04.088Z,30.00
2018-06-19T14:40:32.669Z,30.26
2018-06-19T14:43:01.217Z,30.05
2018-06-19T14:45:29.793Z,29.93
2018-06-19T14:47:58.380Z,30.08
2018-06-19T14:50:26.916Z,29.87
2018-06-19T14:52:55.463Z,29.84
2018-06-19T14:55:24.070Z,29.55
2018-06-19T14:57:52.594Z,29.45
2018-06-19T15:00:21.157Z,29.14
2018-06-19T15:02:49.698Z,29.07
2018-06-19T15:05:18.226Z,28.85
2018-06-19T15:07:54.077Z,28.94
2018-06-19T15:10:22.784Z,28.90
2018-06-19T15:12:51.418Z,28.93
2018-06-19T15:15:20.021Z,28.97
2018-06-19T15:17:48.581Z,28.69
2018-06-19T15:20:17.297Z,28.53
2018-06-19T15:22:45.854Z,28.67
2018-06-19T15:25:14.441Z,28.64
2018-06-19T15:27:42.974Z,28.98
2018-06-19T15:30:11.557Z,29.20
2018-06-19T15:32:40.144Z,29.17
2018-06-19T15:35:08.644Z,28.90
2018-06-19T15:37:37.807Z,28.72
2018-06-19T15:40:06.497Z,28.83
2018-06-19T15:42:35.017Z,28.74
2018-06-19T15:45:03.603Z,28.39
2018-06-19T15:47:32.186Z,28.18
2018-06-19T15:50:00.730Z,28.10
2018-06-19T15:52:29.294Z,28.26
2018-06-19T15:54:57.885Z,28.03
2018-06-19T15:57:26.543Z,28.22
2018-06-19T15:59:55.089Z,28.31
2018-06-19T16:02:23.597Z,28.25
2018-06-19T16:04:52.142Z,27.98
2018-06-19T16:07:20.822Z,27.82
2018-06-19T16:09:49.378Z,27.74
2018-06-19T16:12:17.882Z,27.75
2018-06-19T16:14:46.426Z,27.73
2018-06-19T16:17:14.932Z,27.93
2018-06-19T16:19:43.448Z,28.13
2018-06-19T16:22:12.005Z,28.13
2018-06-19T16:24:40.553Z,28.20
2018-06-19T16:27:09.089Z,28.30
2018-06-19T16:29:37.683Z,28.34
2018-06-19T16:32:06.262Z,28.43
2018-06-19T16:34:35.456Z,28.47
2018-06-19T16:37:04.065Z,28.44
2018-06-19T16:39:32.703Z,28.40
2018-06-19T16:42:01.252Z,28.27
2018-06-19T16:44:29.903Z,28.22
2018-06-19T16:46:58.453Z,28.31
2018-06-19T16:49:26.973Z,28.57
2018-06-19T16:51:55.567Z,28.64
2018-06-19T16:54:24.097Z,28.70
2018-06-19T16:56:52.620Z,28.57
2018-06-19T16:59:21.170Z,28.49
2018-06-19T17:01:49.708Z,28.54
2018-06-19T17:04:18.261Z,28.56
2018-06-19T17:06:46.906Z,28.41
2018-06-19T17:09:15.442Z,28.18
2018-06-19T17:11:43.993Z,28.05
2018-06-19T17:14:12.598Z,28.07
2018-06-19T17:16:41.155Z,27.92
2018-06-19T17:19:09.726Z,27.75
2018-06-19T17:21:38.297Z,27.61
2018-06-19T17:24:06.866Z,27.56
2018-06-19T17:26:35.399Z,27.59
2018-06-19T17:29:03.969Z,26.28
2018-06-19T17:31:32.523Z,27.74
2018-06-19T17:34:01.078Z,27.69
2018-06-19T17:36:29.644Z,27.67
2018-06-19T17:38:58.221Z,27.62
2018-06-19T17:41:26.768Z,27.58
2018-06-19T17:43:55.381Z,27.57
2018-06-19T17:46:23.959Z,27.42
2018-06-19T17:48:52.498Z,27.27
2018-06-19T17:51:21.037Z,27.06
2018-06-19T17:53:49.583Z,26.92
2018-06-19T17:56:18.123Z,26.86
2018-06-19T17:58:46.664Z,26.69
2018-06-19T18:01:15.217Z,26.60
2018-06-19T18:03:43.785Z,26.48
2018-06-19T18:06:12.357Z,26.42
2018-06-19T18:08:41.020Z,26.34
2018-06-19T18:11:09.524Z,26.28
2018-06-19T18:13:38.111Z,26.18
2018-06-19T18:16:06.764Z,26.10
2018-06-19T18:18:35.303Z,25.99
2018-06-19T18:21:03.827Z,25.83
2018-06-19T18:23:32.618Z,25.81
2018-06-19T18:26:01.454Z,25.82
2018-06-19T18:28:30.197Z,25.73
2018-06-19T18:30:58.930Z,25.71
2018-06-19T18:33:27.725Z,25.69
2018-06-19T18:35:56.559Z,25.59
2018-06-19T18:38:26.139Z,25.55
2018-06-19T18:40:55.026Z,25.51
2018-06-19T18:43:23.919Z,25.45
2018-06-19T18:45:52.574Z,25.40
2018-06-19T18:48:21.440Z,25.35
2018-06-19T18:50:50.456Z,25.31
2018-06-19T18:53:19.156Z,25.23
2018-06-19T18:55:47.826Z,25.12
2018-06-19T18:58:16.603Z,25.03
2018-06-19T19:00:45.360Z,24.89
2018-06-19T19:03:14.050Z,24.77
2018-06-19T19:05:42.887Z,24.53
2018-06-19T19:08:16.761Z,24.31
2018-06-19T19:10:54.129Z,24.10
2018-06-19T19:13:24.043Z,23.93
2018-06-19T19:15:58.188Z,23.80
2018-06-19T19:18:32.061Z,23.70
2018-06-19T19:21:01.894Z,23.55
2018-06-19T19:23:31.198Z,23.38
2018-06-19T19:26:00.108Z,23.27
2018-06-19T19:28:34.413Z,23.19
2018-06-19T19:31:03.247Z,23.13
2018-06-19T19:33:32.026Z,23.12
2018-06-19T19:36:00.840Z,23.06
2018-06-19T19:38:35.525Z,23.05
2018-06-19T19:41:04.317Z,23.02
2018-06-19T19:43:33.309Z,22.99
2018-06-19T19:46:02.100Z,22.98
2018-06-19T19:48:36.837Z,22.98
2018-06-19T19:51:05.797Z,22.96
2018-06-19T19:53:34.608Z,22.96
2018-06-19T19:56:08.539Z,22.93
2018-06-19T19:58:42.456Z,22.92
2018-06-19T20:01:11.339Z,22.87
2018-06-19T20:03:40.183Z,22.83
2018-06-19T20:06:09.034Z,22.81
2018-06-19T20:08:37.938Z,22.80
2018-06-19T20:11:06.910Z,22.79
2018-06-19T20:13:35.722Z,22.80
2018-06-19T20:16:04.553Z,22.73
2018-06-19T20:18:33.401Z,22.70
2018-06-19T20:21:02.147Z,22.61
2018-06-19T20:23:30.799Z,22.57
2018-06-19T20:25:59.433Z,22.52
2018-06-19T20:28:28.124Z,22.44
2018-06-19T20:30:56.706Z,22.38
2018-06-19T20:33:25.348Z,22.26
2018-06-19T20:35:54.533Z,22.17
2018-06-19T20:38:23.190Z,22.09
2018-06-19T20:40:51.797Z,22.02
2018-06-19T20:43:20.448Z,21.98
2018-06-19T20:45:49.168Z,21.89
2018-06-19T20:48:17.821Z,21.79
2018-06-19T20:50:46.508Z,21.71
2018-06-19T20:53:15.225Z,21.66
2018-06-19T20:55:44.091Z,21.59
2018-06-19T20:58:12.733Z,21.56
2018-06-19T21:00:41.548Z,21.51
2018-06-19T21:03:10.306Z,21.44
2018-06-19T21:05:38.945Z,21.40
2018-06-19T21:08:08.505Z,21.30
2018-06-19T21:10:37.221Z,21.21
2018-06-19T21:13:06.143Z,21.15
2018-06-19T21:15:35.460Z,21.05
2018-06-19T21:18:04.253Z,20.93
2018-06-19T21:20:33.106Z,20.80
2018-06-19T21:23:01.884Z,20.70
2018-06-19T21:25:30.565Z,20.61
2018-06-19T21:27:59.196Z,20.56
2018-06-19T21:30:27.872Z,20.52
2018-06-19T21:32:56.500Z,20.47
2018-06-19T21:35:25.341Z,20.35
2018-06-19T21:37:54.023Z,20.31
2018-06-19T21:40:22.962Z,20.25
2018-06-19T21:42:51.584Z,20.19
2018-06-19T21:45:20.209Z,20.09
2018-06-19T21:47:48.894Z,20.03
2018-06-19T21:50:17.543Z,19.92
2018-06-19T21:52:46.410Z,19.84
2018-06-19T21:55:15.285Z,19.77
2018-06-19T21:57:44.236Z,19.71
2018-06-19T22:00:13.002Z,19.66
2018-06-19T22:02:41.705Z,19.61
2018-06-19T22:05:10.483Z,19.57
2018-06-19T22:07:39.359Z,19.53
2018-06-19T22:10:08.075Z,19.51
2018-06-19T22:12:36.736Z,19.47
2018-06-19T22:15:05.593Z,19.42
2018-06-19T22:17:34.359Z,19.36
2018-06-19T22:20:03.029Z,19.26
2018-06-19T22:22:31.867Z,19.18
2018-06-19T22:25:00.425Z,19.13
2018-06-19T22:27:29.089Z,19.10
2018-06-19T22:29:57.720Z,19.05
2018-06-19T22:32:26.317Z,19.00
2018-06-19T22:34:55.149Z,18.98
2018-06-19T22:37:23.778Z,18.95
2018-06-19T22:39:52.408Z,18.95
2018-06-19T22:42:21.179Z,18.91
2018-06-19T22:44:49.824Z,18.85
2018-06-19T22:47:18.501Z,18.80
2018-06-19T22:49:47.244Z,18.75
2018-06-19T22:52:15.901Z,18.71
2018-06-19T22:54:44.784Z,18.69
2018-06-19T22:57:13.543Z,18.65
2018-06-19T22:59:42.261Z,18.59
2018-06-19T23:02:11.023Z,18.52
2018-06-19T23:04:39.787Z,18.51
2018-06-19T23:07:08.422Z,18.47
2018-06-19T23:09:37.013Z,18.46
2018-06-19T23:12:05.742Z,18.40
2018-06-19T23:14:34.631Z,18.38
2018-06-19T23:17:03.465Z,18.37
2018-06-19T23:19:32.033Z,18.33
2018-06-19T23:22:00.814Z,18.29
2018-06-19T23:24:29.517Z,18.23
2018-06-19T23:26:58.271Z,18.19
2018-06-19T23:29:26.945Z,18.16
2018-06-19T23:31:55.676Z,18.13
2018-06-19T23:34:24.301Z,18.10
2018-06-19T23:36:53.060Z,18.06
2018-06-19T23:39:21.725Z,18.03
2018-06-19T23:41:50.256Z,18.01
2018-06-19T23:44:18.863Z,17.99
2018-06-19T23:46:47.418Z,17.98
2018-06-19T23:49:16.051Z,17.95
2018-06-19T23:51:44.781Z,17.92
2018-06-19T23:54:13.632Z,17.92
2018-06-19T23:56:42.540Z,17.90
2018-06-19T23:59:11.309Z,17.87
